Etusivu
METAR-TAF:

METAR-TAF

Lentoasemat :

Iowa City Municipal Airport

Iowa City, Iowa, Yhdysvallat

Leveyspiiri: 41-37-58N, Pituuspiiri: 091-32-35W, korkeus merenpinnasta: 203 m

Tämänhetkinen sää

Tämä raportti tehtiin 55 minuuttia sitten, kello 12.52 UTC
Tuuli 7 kn luoteesta
Lämpötila 18°C
Kosteus 73%
Ilmanpaine 1008 hPa
Näkyvyys: 16.1 km
Pilvistä 11000 ft:n korkeudessa

METAR: KIOW 271252Z AUTO 32007KT 10SM OVC110 18/13 A2978 RMK AO2 SLP079 T01780128

Aika: 08:47 (13:47 UTC)


TAF: puuttuu

Säähavainnot ja -ennusteet yli 4000 lentoasemalta (METAR- ja TAF-raportit).

Käytössä olevat sääasemat on merkitty karttaan keltaisilla ja punaisilla pisteillä.

Aseta hiiri pisteen päälle nähdäksesi sääaseman nimen.

Klikkaa sitten nähdäksesi säähavainnot ja -ennusteet.

Kartan vaihtaminen: klikkaa mustalla rastilla varustettuja vihreitä pisteitä, niin voit zoomata sisään; viivalla varustettua vihreää pistettä, niin voit zoomata ulos tai vihreitä nuolia, niin pääset viereisille kartoille.


METAR-TAF: